sensor_id;sensor_type;location;lat;lon;timestamp;pressure;altitude;pressure_sealevel;temperature;humidity
81387;BME280;70842;50.744;7.114;2023-10-09T00:01:05;101581.75;;;18.13;72.70
81387;BME280;70842;50.744;7.114;2023-10-09T00:03:40;101593.91;;;17.80;73.80
81387;BME280;70842;50.744;7.114;2023-10-09T00:06:07;101583.78;;;18.01;72.93
81387;BME280;70842;50.744;7.114;2023-10-09T00:08:34;101586.53;;;17.91;73.76
81387;BME280;70842;50.744;7.114;2023-10-09T00:11:03;101580.84;;;17.67;74.56
81387;BME280;70842;50.744;7.114;2023-10-09T00:13:47;101582.44;;;18.15;72.83
81387;BME280;70842;50.744;7.114;2023-10-09T00:16:25;101577.34;;;18.12;72.43
81387;BME280;70842;50.744;7.114;2023-10-09T00:19:09;101580.00;;;18.21;71.97
81387;BME280;70842;50.744;7.114;2023-10-09T00:21:47;101579.19;;;18.56;70.62
81387;BME280;70842;50.744;7.114;2023-10-09T00:24:15;101576.69;;;18.27;71.41
81387;BME280;70842;50.744;7.114;2023-10-09T00:26:51;101570.97;;;18.40;71.35
81387;BME280;70842;50.744;7.114;2023-10-09T00:29:18;101579.44;;;18.45;70.54
81387;BME280;70842;50.744;7.114;2023-10-09T00:31:49;101576.22;;;18.14;71.85
81387;BME280;70842;50.744;7.114;2023-10-09T00:34:17;101580.41;;;17.99;72.62
81387;BME280;70842;50.744;7.114;2023-10-09T00:36:48;101580.81;;;17.77;72.71
81387;BME280;70842;50.744;7.114;2023-10-09T00:39:18;101568.81;;;18.26;71.53
81387;BME280;70842;50.744;7.114;2023-10-09T00:42:03;101573.94;;;18.19;71.40
81387;BME280;70842;50.744;7.114;2023-10-09T00:44:32;101582.91;;;18.28;70.98
81387;BME280;70842;50.744;7.114;2023-10-09T00:47:11;101574.72;;;18.29;70.75
81387;BME280;70842;50.744;7.114;2023-10-09T00:49:57;101567.53;;;18.03;72.03
81387;BME280;70842;50.744;7.114;2023-10-09T00:52:32;101566.94;;;18.09;71.27
81387;BME280;70842;50.744;7.114;2023-10-09T00:55:07;101558.97;;;18.17;70.85
81387;BME280;70842;50.744;7.114;2023-10-09T00:57:45;101560.31;;;17.85;72.49
81387;BME280;70842;50.744;7.114;2023-10-09T01:00:26;101552.25;;;17.49;73.65
81387;BME280;70842;50.744;7.114;2023-10-09T01:03:13;101555.50;;;17.79;72.57
81387;BME280;70842;50.744;7.114;2023-10-09T01:05:51;101549.72;;;17.57;73.21
81387;BME280;70842;50.744;7.114;2023-10-09T01:08:39;101545.53;;;17.35;74.38
81387;BME280;70842;50.744;7.114;2023-10-09T01:13:37;101549.97;;;17.63;73.01
81387;BME280;70842;50.744;7.114;2023-10-09T01:16:12;101533.53;;;17.76;72.15
81387;BME280;70842;50.744;7.114;2023-10-09T01:18:50;101534.13;;;17.70;72.48
81387;BME280;70842;50.744;7.114;2023-10-09T01:21:18;101532.97;;;17.36;73.97
81387;BME280;70842;50.744;7.114;2023-10-09T01:23:50;101535.94;;;17.97;71.48
81387;BME280;70842;50.744;7.114;2023-10-09T01:26:25;101533.63;;;17.84;71.64
81387;BME280;70842;50.744;7.114;2023-10-09T01:28:52;101537.34;;;17.73;72.41
81387;BME280;70842;50.744;7.114;2023-10-09T01:31:24;101527.41;;;18.11;70.48
81387;BME280;70842;50.744;7.114;2023-10-09T01:33:53;101535.00;;;18.15;70.74
81387;BME280;70842;50.744;7.114;2023-10-09T01:36:20;101534.72;;;17.91;71.23
81387;BME280;70842;50.744;7.114;2023-10-09T01:38:59;101539.94;;;17.65;72.26
81387;BME280;70842;50.744;7.114;2023-10-09T01:41:26;101538.41;;;17.63;72.44
81387;BME280;70842;50.744;7.114;2023-10-09T01:43:53;101537.09;;;17.30;73.97
81387;BME280;70842;50.744;7.114;2023-10-09T01:46:26;101533.47;;;17.12;74.07
81387;BME280;70842;50.744;7.114;2023-10-09T01:48:53;101523.41;;;17.33;73.52
81387;BME280;70842;50.744;7.114;2023-10-09T01:51:20;101529.84;;;17.03;74.51
81387;BME280;70842;50.744;7.114;2023-10-09T01:53:47;101516.22;;;17.24;74.29
81387;BME280;70842;50.744;7.114;2023-10-09T01:56:23;101509.22;;;17.13;74.78
81387;BME280;70842;50.744;7.114;2023-10-09T01:58:49;101509.00;;;17.07;74.58
81387;BME280;70842;50.744;7.114;2023-10-09T02:01:16;101514.56;;;17.13;74.42
81387;BME280;70842;50.744;7.114;2023-10-09T02:03:43;101509.59;;;16.91;75.24
81387;BME280;70842;50.744;7.114;2023-10-09T02:06:09;101496.84;;;17.12;74.19
81387;BME280;70842;50.744;7.114;2023-10-09T02:08:56;101494.09;;;17.22;73.57
81387;BME280;70842;50.744;7.114;2023-10-09T02:11:22;101501.81;;;16.98;74.52
81387;BME280;70842;50.744;7.114;2023-10-09T02:14:09;101501.78;;;17.07;74.68
81387;BME280;70842;50.744;7.114;2023-10-09T02:16:48;101501.06;;;17.15;74.39
81387;BME280;70842;50.744;7.114;2023-10-09T02:19:34;101502.31;;;17.48;72.77
81387;BME280;70842;50.744;7.114;2023-10-09T02:22:02;101507.59;;;17.40;72.80
81387;BME280;70842;50.744;7.114;2023-10-09T02:24:42;101519.13;;;17.50;72.52
81387;BME280;70842;50.744;7.114;2023-10-09T02:27:15;101516.63;;;17.39;72.84
81387;BME280;70842;50.744;7.114;2023-10-09T02:30:00;101513.81;;;16.94;74.59
81387;BME280;70842;50.744;7.114;2023-10-09T02:32:35;101509.75;;;16.80;75.21
81387;BME280;70842;50.744;7.114;2023-10-09T02:35:02;101504.06;;;16.93;74.87
81387;BME280;70842;50.744;7.114;2023-10-09T02:37:36;101497.69;;;17.03;74.28
81387;BME280;70842;50.744;7.114;2023-10-09T02:40:04;101499.06;;;17.17;73.62
81387;BME280;70842;50.744;7.114;2023-10-09T02:42:34;101512.69;;;17.33;73.24
81387;BME280;70842;50.744;7.114;2023-10-09T02:45:01;101519.25;;;17.48;72.62
81387;BME280;70842;50.744;7.114;2023-10-09T02:47:30;101512.63;;;17.79;71.43
81387;BME280;70842;50.744;7.114;2023-10-09T02:50:04;101514.25;;;17.72;71.68
81387;BME280;70842;50.744;7.114;2023-10-09T02:52:49;101506.22;;;17.90;70.72
81387;BME280;70842;50.744;7.114;2023-10-09T02:55:25;101507.25;;;17.79;71.03
81387;BME280;70842;50.744;7.114;2023-10-09T02:57:54;101502.66;;;17.72;71.24
81387;BME280;70842;50.744;7.114;2023-10-09T03:00:37;101494.88;;;17.51;72.32
81387;BME280;70842;50.744;7.114;2023-10-09T03:03:04;101499.13;;;17.71;71.72
81387;BME280;70842;50.744;7.114;2023-10-09T03:05:34;101502.16;;;17.86;70.71
81387;BME280;70842;50.744;7.114;2023-10-09T03:08:00;101501.00;;;17.88;71.06
81387;BME280;70842;50.744;7.114;2023-10-09T03:10:28;101506.38;;;17.61;71.67
81387;BME280;70842;50.744;7.114;2023-10-09T03:12:56;101505.38;;;17.62;71.72
81387;BME280;70842;50.744;7.114;2023-10-09T03:15:22;101509.53;;;17.01;74.31
81387;BME280;70842;50.744;7.114;2023-10-09T03:17:49;101512.72;;;17.60;72.26
81387;BME280;70842;50.744;7.114;2023-10-09T03:20:18;101502.38;;;17.38;72.57
81387;BME280;70842;50.744;7.114;2023-10-09T03:22:44;101498.81;;;17.01;74.28
81387;BME280;70842;50.744;7.114;2023-10-09T03:25:11;101504.97;;;16.74;75.54
81387;BME280;70842;50.744;7.114;2023-10-09T03:27:42;101499.19;;;16.69;75.86
81387;BME280;70842;50.744;7.114;2023-10-09T03:30:16;101505.31;;;17.08;74.48
81387;BME280;70842;50.744;7.114;2023-10-09T03:32:52;101489.22;;;17.08;74.31
81387;BME280;70842;50.744;7.114;2023-10-09T03:35:22;101487.28;;;17.74;71.53
81387;BME280;70842;50.744;7.114;2023-10-09T03:37:58;101496.63;;;16.87;74.65
81387;BME280;70842;50.744;7.114;2023-10-09T03:40:43;101491.66;;;17.38;73.03
81387;BME280;70842;50.744;7.114;2023-10-09T03:43:10;101488.53;;;17.06;73.99
81387;BME280;70842;50.744;7.114;2023-10-09T03:45:37;101494.09;;;17.22;73.54
81387;BME280;70842;50.744;7.114;2023-10-09T03:48:05;101492.22;;;17.05;74.32
81387;BME280;70842;50.744;7.114;2023-10-09T03:50:49;101499.69;;;17.38;73.08
81387;BME280;70842;50.744;7.114;2023-10-09T03:53:21;101491.63;;;17.11;73.49
81387;BME280;70842;50.744;7.114;2023-10-09T03:55:48;101499.34;;;17.24;73.33
81387;BME280;70842;50.744;7.114;2023-10-09T03:58:15;101507.69;;;17.57;72.31
81387;BME280;70842;50.744;7.114;2023-10-09T04:00:45;101504.03;;;17.76;71.50
81387;BME280;70842;50.744;7.114;2023-10-09T04:03:13;101496.41;;;17.54;72.02
81387;BME280;70842;50.744;7.114;2023-10-09T04:05:42;101495.97;;;17.12;73.53
81387;BME280;70842;50.744;7.114;2023-10-09T04:08:10;101491.00;;;16.90;74.66
81387;BME280;70842;50.744;7.114;2023-10-09T04:10:42;101502.28;;;17.30;73.28
81387;BME280;70842;50.744;7.114;2023-10-09T04:13:23;101488.16;;;17.65;71.27
81387;BME280;70842;50.744;7.114;2023-10-09T04:15:50;101502.91;;;17.51;71.96
81387;BME280;70842;50.744;7.114;2023-10-09T04:18:20;101501.94;;;17.43;72.39
81387;BME280;70842;50.744;7.114;2023-10-09T04:20:47;101492.78;;;16.99;74.30
81387;BME280;70842;50.744;7.114;2023-10-09T04:23:32;101484.41;;;17.11;73.71
81387;BME280;70842;50.744;7.114;2023-10-09T04:26:02;101484.94;;;16.78;75.68
81387;BME280;70842;50.744;7.114;2023-10-09T04:28:37;101484.78;;;16.89;75.10
81387;BME280;70842;50.744;7.114;2023-10-09T04:31:03;101485.06;;;16.96;74.57
81387;BME280;70842;50.744;7.114;2023-10-09T04:33:32;101480.06;;;16.64;75.96
81387;BME280;70842;50.744;7.114;2023-10-09T04:36:06;101472.88;;;17.11;74.38
81387;BME280;70842;50.744;7.114;2023-10-09T04:38:53;101476.31;;;16.94;74.31
81387;BME280;70842;50.744;7.114;2023-10-09T04:41:42;101474.13;;;16.61;75.72
81387;BME280;70842;50.744;7.114;2023-10-09T04:44:09;101471.28;;;17.18;73.98
81387;BME280;70842;50.744;7.114;2023-10-09T04:47:02;101477.84;;;17.70;71.49
81387;BME280;70842;50.744;7.114;2023-10-09T04:49:41;101489.69;;;17.31;72.65
81387;BME280;70842;50.744;7.114;2023-10-09T04:52:22;101486.22;;;17.21;73.21
81387;BME280;70842;50.744;7.114;2023-10-09T04:54:55;101470.75;;;16.59;75.91
81387;BME280;70842;50.744;7.114;2023-10-09T04:57:34;101473.97;;;16.72;75.14
81387;BME280;70842;50.744;7.114;2023-10-09T05:00:11;101474.97;;;16.61;75.85
81387;BME280;70842;50.744;7.114;2023-10-09T05:03:02;101474.53;;;16.47;75.87
81387;BME280;70842;50.744;7.114;2023-10-09T05:05:58;101476.34;;;16.84;74.96
81387;BME280;70842;50.744;7.114;2023-10-09T05:08:26;101467.53;;;17.11;73.89
81387;BME280;70842;50.744;7.114;2023-10-09T05:11:03;101478.00;;;16.95;74.44
81387;BME280;70842;50.744;7.114;2023-10-09T05:13:30;101471.22;;;17.00;73.79
81387;BME280;70842;50.744;7.114;2023-10-09T05:16:23;101471.94;;;16.93;74.37
81387;BME280;70842;50.744;7.114;2023-10-09T05:18:54;101471.88;;;16.47;75.95
81387;BME280;70842;50.744;7.114;2023-10-09T05:21:26;101462.56;;;16.70;75.67
81387;BME280;70842;50.744;7.114;2023-10-09T05:23:58;101476.91;;;16.78;75.16
81387;BME280;70842;50.744;7.114;2023-10-09T05:26:45;101488.22;;;16.53;76.25
81387;BME280;70842;50.744;7.114;2023-10-09T05:29:24;101478.66;;;16.51;76.26
81387;BME280;70842;50.744;7.114;2023-10-09T05:32:04;101473.22;;;16.89;74.60
81387;BME280;70842;50.744;7.114;2023-10-09T05:34:51;101478.25;;;17.01;74.20
81387;BME280;70842;50.744;7.114;2023-10-09T05:40:04;101481.03;;;17.46;72.90
81387;BME280;70842;50.744;7.114;2023-10-09T05:42:44;101475.47;;;16.93;74.07
81387;BME280;70842;50.744;7.114;2023-10-09T05:45:12;101476.53;;;16.54;75.57
81387;BME280;70842;50.744;7.114;2023-10-09T05:47:58;101466.38;;;16.67;75.02
81387;BME280;70842;50.744;7.114;2023-10-09T05:50:31;101456.81;;;16.46;75.75
81387;BME280;70842;50.744;7.114;2023-10-09T05:53:01;101462.72;;;16.59;75.41
81387;BME280;70842;50.744;7.114;2023-10-09T05:55:29;101467.72;;;16.90;74.29
81387;BME280;70842;50.744;7.114;2023-10-09T05:58:14;101470.31;;;16.63;75.26
81387;BME280;70842;50.744;7.114;2023-10-09T06:00:59;101473.13;;;16.81;74.41
81387;BME280;70842;50.744;7.114;2023-10-09T06:03:31;101476.16;;;16.95;73.64
81387;BME280;70842;50.744;7.114;2023-10-09T06:06:36;101475.78;;;17.27;72.90
81387;BME280;70842;50.744;7.114;2023-10-09T06:09:12;101467.94;;;17.53;71.97
81387;BME280;70842;50.744;7.114;2023-10-09T06:11:44;101465.94;;;17.18;73.00
81387;BME280;70842;50.744;7.114;2023-10-09T06:14:22;101462.56;;;16.70;75.02
81387;BME280;70842;50.744;7.114;2023-10-09T06:16:52;101474.50;;;16.85;74.79
81387;BME280;70842;50.744;7.114;2023-10-09T06:19:28;101475.13;;;17.15;73.35
81387;BME280;70842;50.744;7.114;2023-10-09T06:21:56;101478.44;;;17.27;72.69
81387;BME280;70842;50.744;7.114;2023-10-09T06:24:41;101488.28;;;17.36;72.42
81387;BME280;70842;50.744;7.114;2023-10-09T06:27:09;101479.16;;;17.29;72.89
81387;BME280;70842;50.744;7.114;2023-10-09T06:29:36;101482.16;;;16.70;75.24
81387;BME280;70842;50.744;7.114;2023-10-09T06:32:07;101479.69;;;16.96;74.35
81387;BME280;70842;50.744;7.114;2023-10-09T06:34:57;101481.72;;;16.75;75.08
81387;BME280;70842;50.744;7.114;2023-10-09T06:37:43;101489.78;;;17.11;73.78
81387;BME280;70842;50.744;7.114;2023-10-09T06:43:03;101501.50;;;17.47;72.15
81387;BME280;70842;50.744;7.114;2023-10-09T06:45:52;101500.41;;;17.40;72.73
81387;BME280;70842;50.744;7.114;2023-10-09T06:48:25;101503.75;;;17.52;72.51
81387;BME280;70842;50.744;7.114;2023-10-09T06:53:39;101506.84;;;18.02;70.56
81387;BME280;70842;50.744;7.114;2023-10-09T06:56:28;101507.66;;;17.84;70.74
81387;BME280;70842;50.744;7.114;2023-10-09T06:58:59;101516.94;;;17.63;71.52
81387;BME280;70842;50.744;7.114;2023-10-09T07:02:01;101510.63;;;17.64;72.00
81387;BME280;70842;50.744;7.114;2023-10-09T07:04:46;101511.06;;;17.59;71.64
81387;BME280;70842;50.744;7.114;2023-10-09T07:07:12;101517.19;;;17.69;71.47
81387;BME280;70842;50.744;7.114;2023-10-09T07:09:42;101513.53;;;18.15;71.03
81387;BME280;70842;50.744;7.114;2023-10-09T07:12:10;101523.22;;;18.61;68.96
81387;BME280;70842;50.744;7.114;2023-10-09T07:14:40;101532.84;;;18.19;69.86
81387;BME280;70842;50.744;7.114;2023-10-09T07:17:08;101524.94;;;18.35;69.25
81387;BME280;70842;50.744;7.114;2023-10-09T07:19:54;101540.31;;;18.60;68.34
81387;BME280;70842;50.744;7.114;2023-10-09T07:22:23;101554.22;;;18.55;68.65
81387;BME280;70842;50.744;7.114;2023-10-09T07:24:56;101564.16;;;18.81;68.13
81387;BME280;70842;50.744;7.114;2023-10-09T07:27:23;101576.78;;;18.88;68.06
81387;BME280;70842;50.744;7.114;2023-10-09T07:30:12;101558.69;;;18.90;68.40
81387;BME280;70842;50.744;7.114;2023-10-09T07:33:03;101566.28;;;18.77;68.03
81387;BME280;70842;50.744;7.114;2023-10-09T07:35:50;101551.25;;;18.84;67.97
81387;BME280;70842;50.744;7.114;2023-10-09T07:38:21;101572.44;;;18.87;68.15
81387;BME280;70842;50.744;7.114;2023-10-09T07:40:56;101557.75;;;18.99;67.32
81387;BME280;70842;50.744;7.114;2023-10-09T07:43:35;101563.78;;;18.58;69.30
81387;BME280;70842;50.744;7.114;2023-10-09T07:46:06;101571.38;;;18.80;68.36
81387;BME280;70842;50.744;7.114;2023-10-09T07:49:08;101563.19;;;18.90;67.79
81387;BME280;70842;50.744;7.114;2023-10-09T07:51:39;101557.88;;;18.54;68.99
81387;BME280;70842;50.744;7.114;2023-10-09T07:54:10;101562.94;;;19.18;67.17
81387;BME280;70842;50.744;7.114;2023-10-09T07:56:42;101547.44;;;19.12;67.23
81387;BME280;70842;50.744;7.114;2023-10-09T07:59:13;101553.53;;;19.22;67.14
81387;BME280;70842;50.744;7.114;2023-10-09T08:01:41;101556.59;;;19.27;67.07
81387;BME280;70842;50.744;7.114;2023-10-09T08:04:22;101559.63;;;19.50;65.93
81387;BME280;70842;50.744;7.114;2023-10-09T08:07:08;101555.53;;;18.95;68.28
81387;BME280;70842;50.744;7.114;2023-10-09T08:10:11;101573.31;;;19.39;66.44
81387;BME280;70842;50.744;7.114;2023-10-09T08:12:44;101566.06;;;19.14;67.81
81387;BME280;70842;50.744;7.114;2023-10-09T08:15:11;101558.88;;;19.14;67.13
81387;BME280;70842;50.744;7.114;2023-10-09T08:17:50;101564.69;;;19.53;65.96
81387;BME280;70842;50.744;7.114;2023-10-09T08:20:30;101573.94;;;19.59;65.77
81387;BME280;70842;50.744;7.114;2023-10-09T08:23:17;101574.19;;;19.22;66.71
81387;BME280;70842;50.744;7.114;2023-10-09T08:26:03;101586.28;;;19.00;67.92
81387;BME280;70842;50.744;7.114;2023-10-09T08:28:55;101580.28;;;19.50;66.40
81387;BME280;70842;50.744;7.114;2023-10-09T08:31:40;101580.41;;;19.74;65.35
81387;BME280;70842;50.744;7.114;2023-10-09T08:34:13;101579.34;;;19.67;65.91
81387;BME280;70842;50.744;7.114;2023-10-09T08:36:55;101590.88;;;19.85;65.45
81387;BME280;70842;50.744;7.114;2023-10-09T08:39:22;101601.25;;;20.13;64.12
81387;BME280;70842;50.744;7.114;2023-10-09T08:41:53;101579.34;;;20.08;64.79
81387;BME280;70842;50.744;7.114;2023-10-09T08:44:21;101581.78;;;19.86;65.70
81387;BME280;70842;50.744;7.114;2023-10-09T08:46:49;101583.53;;;20.03;64.57
81387;BME280;70842;50.744;7.114;2023-10-09T08:49:17;101582.91;;;20.17;64.21
81387;BME280;70842;50.744;7.114;2023-10-09T08:51:44;101592.94;;;19.91;65.24
81387;BME280;70842;50.744;7.114;2023-10-09T08:54:12;101583.13;;;19.82;65.56
81387;BME280;70842;50.744;7.114;2023-10-09T08:56:41;101571.50;;;19.73;65.59
81387;BME280;70842;50.744;7.114;2023-10-09T08:59:18;101560.25;;;19.44;66.58
81387;BME280;70842;50.744;7.114;2023-10-09T09:01:46;101571.50;;;19.39;66.96
81387;BME280;70842;50.744;7.114;2023-10-09T09:04:35;101572.66;;;19.71;66.18
81387;BME280;70842;50.744;7.114;2023-10-09T09:10:00;101562.97;;;19.26;68.30
81387;BME280;70842;50.744;7.114;2023-10-09T09:12:48;101602.06;;;20.06;65.69
81387;BME280;70842;50.744;7.114;2023-10-09T09:15:27;101594.16;;;20.54;64.07
81387;BME280;70842;50.744;7.114;2023-10-09T09:18:08;101602.72;;;20.66;62.76
81387;BME280;70842;50.744;7.114;2023-10-09T09:20:38;101593.66;;;20.75;62.93
81387;BME280;70842;50.744;7.114;2023-10-09T09:23:09;101627.19;;;20.88;62.33
81387;BME280;70842;50.744;7.114;2023-10-09T09:25:46;101612.53;;;20.99;62.00
81387;BME280;70842;50.744;7.114;2023-10-09T09:28:26;101617.91;;;20.91;62.54
81387;BME280;70842;50.744;7.114;2023-10-09T09:31:07;101586.41;;;20.91;62.36
81387;BME280;70842;50.744;7.114;2023-10-09T09:33:40;101554.09;;;20.67;62.47
81387;BME280;70842;50.744;7.114;2023-10-09T09:36:09;101513.00;;;20.25;62.49
81387;BME280;70842;50.744;7.114;2023-10-09T09:38:38;101498.81;;;20.15;63.18
81387;BME280;70842;50.744;7.114;2023-10-09T09:41:15;101488.34;;;19.96;63.54
81387;BME280;70842;50.744;7.114;2023-10-09T09:43:53;101506.88;;;20.07;63.37
81387;BME280;70842;50.744;7.114;2023-10-09T09:46:22;101528.84;;;20.92;61.03
81387;BME280;70842;50.744;7.114;2023-10-09T09:49:04;101548.00;;;20.97;58.37
81387;BME280;70842;50.744;7.114;2023-10-09T09:51:43;101519.06;;;21.08;59.25
81387;BME280;70842;50.744;7.114;2023-10-09T09:54:13;101508.78;;;20.79;59.83
81387;BME280;70842;50.744;7.114;2023-10-09T09:56:45;101516.56;;;20.42;59.76
81387;BME280;70842;50.744;7.114;2023-10-09T09:59:18;101499.72;;;20.56;59.15
81387;BME280;70842;50.744;7.114;2023-10-09T10:01:49;101492.16;;;20.43;59.79
81387;BME280;70842;50.744;7.114;2023-10-09T10:04:34;101474.75;;;20.94;59.00
81387;BME280;70842;50.744;7.114;2023-10-09T10:07:04;101485.16;;;21.21;58.51
81387;BME280;70842;50.744;7.114;2023-10-09T10:09:37;101479.28;;;21.64;56.82
81387;BME280;70842;50.744;7.114;2023-10-09T10:12:08;101462.28;;;22.17;55.99
81387;BME280;70842;50.744;7.114;2023-10-09T10:17:19;101469.22;;;21.81;56.10
81387;BME280;70842;50.744;7.114;2023-10-09T10:22:28;101461.63;;;22.15;53.72
81387;BME280;70842;50.744;7.114;2023-10-09T10:24:56;101473.94;;;22.55;52.41
81387;BME280;70842;50.744;7.114;2023-10-09T10:27:35;101464.56;;;23.03;51.36
81387;BME280;70842;50.744;7.114;2023-10-09T10:32:57;101459.78;;;22.76;50.70
81387;BME280;70842;50.744;7.114;2023-10-09T10:35:24;101452.06;;;23.31;49.89
81387;BME280;70842;50.744;7.114;2023-10-09T10:38:28;101450.66;;;23.06;49.18
81387;BME280;70842;50.744;7.114;2023-10-09T10:41:16;101438.91;;;22.99;49.81
81387;BME280;70842;50.744;7.114;2023-10-09T10:43:44;101446.19;;;23.27;48.34
81387;BME280;70842;50.744;7.114;2023-10-09T10:46:15;101437.22;;;23.71;47.61
81387;BME280;70842;50.744;7.114;2023-10-09T10:48:51;101451.00;;;23.97;47.23
81387;BME280;70842;50.744;7.114;2023-10-09T10:51:35;101442.94;;;24.18;46.75
81387;BME280;70842;50.744;7.114;2023-10-09T10:54:08;101444.47;;;24.27;46.27
81387;BME280;70842;50.744;7.114;2023-10-09T10:57:21;101442.72;;;23.98;45.33
81387;BME280;70842;50.744;7.114;2023-10-09T11:00:17;101452.66;;;24.55;45.62
81387;BME280;70842;50.744;7.114;2023-10-09T11:03:02;101449.31;;;24.32;44.15
81387;BME280;70842;50.744;7.114;2023-10-09T11:05:43;101449.19;;;24.67;43.31
81387;BME280;70842;50.744;7.114;2023-10-09T11:08:18;101447.97;;;24.42;43.47
81387;BME280;70842;50.744;7.114;2023-10-09T11:10:50;101453.31;;;24.85;42.93
81387;BME280;70842;50.744;7.114;2023-10-09T11:13:24;101454.13;;;24.57;42.98
81387;BME280;70842;50.744;7.114;2023-10-09T11:16:00;101452.97;;;24.45;42.17
81387;BME280;70842;50.744;7.114;2023-10-09T11:18:42;101452.34;;;24.71;42.55
81387;BME280;70842;50.744;7.114;2023-10-09T11:21:15;101454.28;;;24.77;42.82
81387;BME280;70842;50.744;7.114;2023-10-09T11:23:42;101456.97;;;24.98;42.31
81387;BME280;70842;50.744;7.114;2023-10-09T11:26:29;101461.44;;;24.36;42.35
81387;BME280;70842;50.744;7.114;2023-10-09T11:29:13;101463.53;;;24.83;42.30
81387;BME280;70842;50.744;7.114;2023-10-09T11:32:03;101458.75;;;24.85;43.74
81387;BME280;70842;50.744;7.114;2023-10-09T11:34:32;101468.59;;;24.43;44.05
81387;BME280;70842;50.744;7.114;2023-10-09T11:37:18;101469.53;;;24.57;44.74
81387;BME280;70842;50.744;7.114;2023-10-09T11:39:58;101467.94;;;24.90;44.53
81387;BME280;70842;50.744;7.114;2023-10-09T11:42:27;101473.41;;;24.48;45.52
81387;BME280;70842;50.744;7.114;2023-10-09T11:45:22;101474.31;;;24.76;46.59
81387;BME280;70842;50.744;7.114;2023-10-09T11:47:57;101463.78;;;24.39;49.04
81387;BME280;70842;50.744;7.114;2023-10-09T11:53:11;101461.00;;;24.32;48.48
81387;BME280;70842;50.744;7.114;2023-10-09T11:56:00;101462.94;;;24.87;47.62
81387;BME280;70842;50.744;7.114;2023-10-09T11:58:27;101466.47;;;24.39;45.95
81387;BME280;70842;50.744;7.114;2023-10-09T12:01:11;101455.75;;;24.52;44.95
81387;BME280;70842;50.744;7.114;2023-10-09T12:03:42;101463.81;;;24.45;45.74
81387;BME280;70842;50.744;7.114;2023-10-09T12:06:10;101467.84;;;24.49;46.09
81387;BME280;70842;50.744;7.114;2023-10-09T12:08:38;101460.28;;;24.45;46.48
81387;BME280;70842;50.744;7.114;2023-10-09T12:11:08;101462.41;;;24.49;46.13
81387;BME280;70842;50.744;7.114;2023-10-09T12:13:36;101470.47;;;24.43;46.93
81387;BME280;70842;50.744;7.114;2023-10-09T12:16:04;101464.06;;;24.50;47.16
81387;BME280;70842;50.744;7.114;2023-10-09T12:18:37;101462.94;;;24.17;47.54
81387;BME280;70842;50.744;7.114;2023-10-09T12:21:05;101470.91;;;24.46;46.92
81387;BME280;70842;50.744;7.114;2023-10-09T12:23:32;101458.22;;;24.47;47.01
81387;BME280;70842;50.744;7.114;2023-10-09T12:26:03;101454.81;;;24.38;47.51
81387;BME280;70842;50.744;7.114;2023-10-09T12:28:29;101445.16;;;24.57;46.90
81387;BME280;70842;50.744;7.114;2023-10-09T12:30:59;101444.56;;;24.13;47.21
81387;BME280;70842;50.744;7.114;2023-10-09T12:33:28;101447.06;;;24.35;47.28
81387;BME280;70842;50.744;7.114;2023-10-09T12:35:56;101450.31;;;24.52;47.01
81387;BME280;70842;50.744;7.114;2023-10-09T12:38:28;101453.81;;;24.25;48.53
81387;BME280;70842;50.744;7.114;2023-10-09T12:41:02;101444.03;;;24.45;48.07
81387;BME280;70842;50.744;7.114;2023-10-09T12:43:35;101446.06;;;24.64;47.56
81387;BME280;70842;50.744;7.114;2023-10-09T12:46:06;101469.66;;;24.70;47.99
81387;BME280;70842;50.744;7.114;2023-10-09T12:48:32;101465.41;;;24.82;47.60
81387;BME280;70842;50.744;7.114;2023-10-09T12:50:59;101448.13;;;24.83;47.49
81387;BME280;70842;50.744;7.114;2023-10-09T12:53:33;101459.78;;;24.84;47.25
81387;BME280;70842;50.744;7.114;2023-10-09T12:55:59;101461.81;;;25.09;46.61
81387;BME280;70842;50.744;7.114;2023-10-09T12:58:26;101450.03;;;24.89;47.71
81387;BME280;70842;50.744;7.114;2023-10-09T13:00:53;101445.38;;;24.55;47.88
81387;BME280;70842;50.744;7.114;2023-10-09T13:03:20;101441.06;;;24.67;47.47
81387;BME280;70842;50.744;7.114;2023-10-09T13:05:50;101446.63;;;24.11;47.10
81387;BME280;70842;50.744;7.114;2023-10-09T13:08:25;101443.47;;;24.28;46.18
81387;BME280;70842;50.744;7.114;2023-10-09T13:11:02;101445.44;;;23.84;43.64
81387;BME280;70842;50.744;7.114;2023-10-09T13:13:38;101458.53;;;24.37;43.63
81387;BME280;70842;50.744;7.114;2023-10-09T13:16:09;101452.53;;;24.42;42.96
81387;BME280;70842;50.744;7.114;2023-10-09T13:18:41;101455.69;;;24.45;42.93
81387;BME280;70842;50.744;7.114;2023-10-09T13:21:13;101461.38;;;24.08;43.34
81387;BME280;70842;50.744;7.114;2023-10-09T13:23:40;101452.53;;;24.42;44.25
81387;BME280;70842;50.744;7.114;2023-10-09T13:26:08;101452.72;;;24.40;44.45
81387;BME280;70842;50.744;7.114;2023-10-09T13:29:00;101452.56;;;23.85;44.22
81387;BME280;70842;50.744;7.114;2023-10-09T13:31:29;101450.47;;;24.23;44.39
81387;BME280;70842;50.744;7.114;2023-10-09T13:33:58;101448.19;;;24.20;44.13
81387;BME280;70842;50.744;7.114;2023-10-09T13:36:29;101450.09;;;24.26;44.25
81387;BME280;70842;50.744;7.114;2023-10-09T13:38:56;101462.72;;;24.19;44.26
81387;BME280;70842;50.744;7.114;2023-10-09T13:41:23;101458.03;;;23.91;44.62
81387;BME280;70842;50.744;7.114;2023-10-09T13:43:55;101457.19;;;24.06;44.57
81387;BME280;70842;50.744;7.114;2023-10-09T13:46:23;101458.78;;;24.00;44.23
81387;BME280;70842;50.744;7.114;2023-10-09T13:48:53;101458.66;;;23.72;45.05
81387;BME280;70842;50.744;7.114;2023-10-09T13:51:20;101456.72;;;23.66;44.55
81387;BME280;70842;50.744;7.114;2023-10-09T13:53:50;101465.16;;;23.78;44.15